createdAt,value
2018-06-01T00:00:52.779Z,19.39
2018-06-01T00:01:52.775Z,19.31
2018-06-01T00:02:52.693Z,19.24
2018-06-01T00:03:52.650Z,19.16
2018-06-01T00:04:52.607Z,19.16
2018-06-01T00:05:52.563Z,19.16
2018-06-01T00:06:52.552Z,19.16
2018-06-01T00:07:52.478Z,19.16
2018-06-01T00:08:52.439Z,19.09
2018-06-01T00:09:52.388Z,19.12
2018-06-01T00:10:52.345Z,19.09
2018-06-01T00:11:52.343Z,19.22
2018-06-01T00:12:52.261Z,19.21
2018-06-01T00:13:52.218Z,19.29
2018-06-01T00:14:52.172Z,19.34
2018-06-01T00:15:52.132Z,19.33
2018-06-01T00:16:52.124Z,19.31
2018-06-01T00:17:52.074Z,19.24
2018-06-01T00:18:52.012Z,19.22
2018-06-01T00:19:51.956Z,19.27
2018-06-01T00:20:51.919Z,19.30
2018-06-01T00:21:51.901Z,19.29
2018-06-01T00:22:51.831Z,19.26
2018-06-01T00:23:51.782Z,19.29
2018-06-01T00:24:51.771Z,19.22
2018-06-01T00:25:51.698Z,19.29
2018-06-01T00:26:51.660Z,19.33
2018-06-01T00:27:51.612Z,19.31
2018-06-01T00:28:51.567Z,19.26
2018-06-01T00:29:51.553Z,19.22
2018-06-01T00:30:51.478Z,19.27
2018-06-01T00:31:51.470Z,19.27
2018-06-01T00:32:51.392Z,19.30
2018-06-01T00:33:51.347Z,19.29
2018-06-01T00:34:51.344Z,19.29
2018-06-01T00:35:51.261Z,19.24
2018-06-01T00:36:51.217Z,19.29
2018-06-01T00:37:51.175Z,19.21
2018-06-01T00:38:51.134Z,19.30
2018-06-01T00:39:51.120Z,19.30
2018-06-01T00:40:51.052Z,19.30
2018-06-01T00:41:51.031Z,19.40
2018-06-01T00:42:50.959Z,19.40
2018-06-01T00:43:50.918Z,19.30
2018-06-01T00:44:50.869Z,19.37
2018-06-01T00:45:50.824Z,19.31
2018-06-01T00:46:50.816Z,19.39
2018-06-01T00:47:50.741Z,19.34
2018-06-01T00:48:50.695Z,19.29
2018-06-01T00:49:50.653Z,19.26
2018-06-01T00:50:50.610Z,19.12
2018-06-01T00:51:50.595Z,19.07
2018-06-01T00:52:50.529Z,19.11
2018-06-01T00:53:50.478Z,19.12
2018-06-01T00:54:50.431Z,19.16
2018-06-01T00:55:50.392Z,19.18
2018-06-01T00:56:50.389Z,19.16
2018-06-01T00:57:50.304Z,19.18
2018-06-01T00:58:50.259Z,19.14
2018-06-01T00:59:50.216Z,19.08
2018-06-01T01:00:50.176Z,19.09
2018-06-01T01:01:50.164Z,19.04
2018-06-01T01:02:50.118Z,19.02
2018-06-01T01:03:50.042Z,18.93
2018-06-01T01:04:50.030Z,19.02
2018-06-01T01:05:49.960Z,18.99
2018-06-01T01:06:49.911Z,19.02
2018-06-01T01:07:49.900Z,18.96
2018-06-01T01:08:49.824Z,18.98
2018-06-01T01:09:49.780Z,18.83
2018-06-01T01:10:49.740Z,18.99
2018-06-01T01:11:49.691Z,19.02
2018-06-01T01:12:49.683Z,19.04
2018-06-01T01:13:49.604Z,19.19
2018-06-01T01:14:49.564Z,19.08
2018-06-01T01:15:49.517Z,19.16
2018-06-01T01:16:49.475Z,19.30
2018-06-01T01:17:49.474Z,19.29
2018-06-01T01:18:49.388Z,19.41
2018-06-01T01:19:49.351Z,19.48
2018-06-01T01:20:49.299Z,19.55
2018-06-01T01:21:49.258Z,19.66
2018-06-01T01:22:49.248Z,19.66
2018-06-01T01:23:49.169Z,19.69
2018-06-01T01:24:49.126Z,19.77
2018-06-01T01:25:49.117Z,19.74
2018-06-01T01:26:49.039Z,19.82
2018-06-01T01:27:49.029Z,19.77
2018-06-01T01:28:48.984Z,19.73
2018-06-01T01:29:48.904Z,19.74
2018-06-01T01:30:48.897Z,19.73
2018-06-01T01:31:48.822Z,19.76
2018-06-01T01:32:48.777Z,19.76
2018-06-01T01:33:48.733Z,19.81
2018-06-01T01:34:48.689Z,19.85
2018-06-01T01:35:48.677Z,19.82
2018-06-01T01:36:48.645Z,19.85
2018-06-01T01:37:48.561Z,19.92
2018-06-01T01:38:48.515Z,19.88
2018-06-01T01:39:48.472Z,19.88
2018-06-01T01:40:48.430Z,19.86
2018-06-01T01:41:48.420Z,19.92
2018-06-01T01:42:48.345Z,19.96
2018-06-01T01:43:48.300Z,19.96
2018-06-01T01:44:48.255Z,19.95
2018-06-01T01:45:48.210Z,19.96
2018-06-01T01:46:48.202Z,19.94
2018-06-01T01:47:48.126Z,20.00
2018-06-01T01:48:48.084Z,19.94
2018-06-01T01:49:48.077Z,19.95
2018-06-01T01:50:47.996Z,19.92
2018-06-01T01:51:47.956Z,19.92
2018-06-01T01:52:47.910Z,19.94
2018-06-01T01:53:47.866Z,19.86
2018-06-01T01:54:47.853Z,19.91
2018-06-01T01:55:47.810Z,19.84
2018-06-01T01:56:47.738Z,19.95
2018-06-01T01:57:47.700Z,19.88
2018-06-01T01:58:47.651Z,19.85
2018-06-01T01:59:47.616Z,19.79
2018-06-01T02:00:47.595Z,19.86
2018-06-01T02:01:47.557Z,19.85
2018-06-01T02:02:47.476Z,19.86
2018-06-01T02:03:47.436Z,19.79
2018-06-01T02:04:47.389Z,19.82
2018-06-01T02:05:47.348Z,19.74
2018-06-01T02:06:47.340Z,19.76
2018-06-01T02:07:47.260Z,19.84
2018-06-01T02:08:47.251Z,19.88
2018-06-01T02:09:47.174Z,19.77
2018-06-01T02:10:47.136Z,19.71
2018-06-01T02:11:47.090Z,19.69
2018-06-01T02:12:47.044Z,19.62
2018-06-01T02:13:47.032Z,19.63
2018-06-01T02:14:46.961Z,19.58
2018-06-01T02:15:46.917Z,19.58
2018-06-01T02:16:46.915Z,19.64
2018-06-01T02:17:46.830Z,19.52
2018-06-01T02:18:46.785Z,19.51
2018-06-01T02:19:46.745Z,19.33
2018-06-01T02:20:46.701Z,19.36
2018-06-01T02:21:46.686Z,19.27
2018-06-01T02:22:46.613Z,19.11
2018-06-01T02:23:46.573Z,19.24
2018-06-01T02:24:46.524Z,19.14
2018-06-01T02:25:46.511Z,19.12
2018-06-01T02:26:46.439Z,19.11
2018-06-01T02:27:46.396Z,18.98
2018-06-01T02:28:46.355Z,19.00
2018-06-01T02:29:46.341Z,19.02
2018-06-01T02:30:46.267Z,19.00
2018-06-01T02:31:46.237Z,18.95
2018-06-01T02:32:46.183Z,18.89
2018-06-01T02:33:46.135Z,18.96
2018-06-01T02:34:46.137Z,18.88
2018-06-01T02:35:46.051Z,18.86
2018-06-01T02:36:46.005Z,18.81
2018-06-01T02:37:45.967Z,18.75
2018-06-01T02:38:45.920Z,18.75
2018-06-01T02:39:45.915Z,18.74
2018-06-01T02:40:45.831Z,18.62
2018-06-01T02:41:45.788Z,18.60
2018-06-01T02:42:45.743Z,18.60
2018-06-01T02:43:45.703Z,18.58
2018-06-01T02:44:45.690Z,18.59
2018-06-01T02:45:45.614Z,18.59
2018-06-01T02:46:45.609Z,18.62
2018-06-01T02:47:45.525Z,18.52
2018-06-01T02:48:45.483Z,18.50
2018-06-01T02:49:45.439Z,18.43
2018-06-01T02:50:45.393Z,18.38
2018-06-01T02:51:45.394Z,18.29
2018-06-01T02:52:45.312Z,18.23
2018-06-01T02:53:45.263Z,18.25
2018-06-01T02:54:45.220Z,18.19
2018-06-01T02:55:45.186Z,18.16
2018-06-01T02:56:45.172Z,18.19
2018-06-01T02:57:45.086Z,18.13
2018-06-01T02:58:45.046Z,18.13
2018-06-01T02:59:45.001Z,18.10
2018-06-01T03:00:44.959Z,18.13
2018-06-01T03:01:44.954Z,18.11
2018-06-01T03:02:44.871Z,18.10
2018-06-01T03:03:44.830Z,18.13
2018-06-01T03:04:44.787Z,18.13
2018-06-01T03:05:44.737Z,18.11
2018-06-01T03:06:44.724Z,18.05
2018-06-01T03:07:44.680Z,18.13
2018-06-01T03:08:44.607Z,18.03
2018-06-01T03:09:44.558Z,18.05
2018-06-01T03:10:44.517Z,18.03
2018-06-01T03:11:44.481Z,18.08
2018-06-01T03:12:44.476Z,18.01
2018-06-01T03:13:44.382Z,18.07
2018-06-01T03:14:44.338Z,18.13
2018-06-01T03:15:44.297Z,18.04
2018-06-01T03:16:44.251Z,18.04
2018-06-01T03:17:44.252Z,18.07
2018-06-01T03:18:44.161Z,18.08
2018-06-01T03:19:44.119Z,18.08
2018-06-01T03:20:44.078Z,17.98
2018-06-01T03:21:44.033Z,18.01
2018-06-01T03:22:44.018Z,18.07
2018-06-01T03:23:43.948Z,18.11
2018-06-01T03:24:43.904Z,18.04
2018-06-01T03:25:43.853Z,17.95
2018-06-01T03:26:43.811Z,18.05
2018-06-01T03:27:43.797Z,18.00
2018-06-01T03:28:43.724Z,17.95
2018-06-01T03:29:43.709Z,17.94
2018-06-01T03:30:43.633Z,17.87
2018-06-01T03:31:43.591Z,17.90
2018-06-01T03:32:43.544Z,17.90
2018-06-01T03:33:43.502Z,17.86
2018-06-01T03:34:43.518Z,17.86
2018-06-01T03:35:43.413Z,17.95
2018-06-01T03:36:43.367Z,18.00
2018-06-01T03:37:43.324Z,17.98
2018-06-01T03:38:43.279Z,18.04
2018-06-01T03:39:43.268Z,18.05
2018-06-01T03:40:43.190Z,18.20
2018-06-01T03:41:43.183Z,18.18
2018-06-01T03:42:43.102Z,18.11
2018-06-01T03:43:43.068Z,18.11
2018-06-01T03:44:43.013Z,18.19
2018-06-01T03:45:43.015Z,18.18
2018-06-01T03:46:42.926Z,18.23
2018-06-01T03:47:42.886Z,18.18
2018-06-01T03:48:42.840Z,18.16
2018-06-01T03:49:42.798Z,18.19
2018-06-01T03:50:42.786Z,17.97
2018-06-01T03:51:42.706Z,17.98
2018-06-01T03:52:42.661Z,18.05
2018-06-01T03:53:42.621Z,18.07
2018-06-01T03:54:42.577Z,18.11
2018-06-01T03:55:42.568Z,18.20
2018-06-01T03:56:42.484Z,18.15
2018-06-01T03:57:42.440Z,18.18
2018-06-01T03:58:42.397Z,18.16
2018-06-01T03:59:42.362Z,18.10
2018-06-01T04:00:42.343Z,18.13
2018-06-01T04:01:42.270Z,18.01
2018-06-01T04:02:42.253Z,17.89
2018-06-01T04:03:42.185Z,17.87
2018-06-01T04:04:42.133Z,17.94
2018-06-01T04:05:42.087Z,17.86
2018-06-01T04:06:42.045Z,17.94
2018-06-01T04:07:42.034Z,18.00
2018-06-01T04:08:41.959Z,18.05
2018-06-01T04:09:41.945Z,18.08
2018-06-01T04:10:41.871Z,18.13
2018-06-01T04:11:41.829Z,18.10
2018-06-01T04:12:41.784Z,18.16
2018-06-01T04:13:41.738Z,18.07
2018-06-01T04:14:41.730Z,18.15
2018-06-01T04:15:41.650Z,18.05
2018-06-01T04:16:41.607Z,17.98
2018-06-01T04:17:41.562Z,18.00
2018-06-01T04:18:41.516Z,17.83
2018-06-01T04:19:41.512Z,17.92
2018-06-01T04:20:41.429Z,17.86
2018-06-01T04:21:41.416Z,17.86
2018-06-01T04:22:41.340Z,17.89
2018-06-01T04:23:41.301Z,17.90
2018-06-01T04:24:41.253Z,17.83
2018-06-01T04:25:41.242Z,17.79
2018-06-01T04:26:41.202Z,17.78
2018-06-01T04:27:41.166Z,17.68
2018-06-01T04:28:41.078Z,17.74
2018-06-01T04:29:41.032Z,17.76
2018-06-01T04:30:40.989Z,17.67
2018-06-01T04:31:40.976Z,17.67
2018-06-01T04:32:40.933Z,17.70
2018-06-01T04:33:40.863Z,17.68
2018-06-01T04:34:40.813Z,17.78
2018-06-01T04:35:40.768Z,17.80
2018-06-01T04:36:40.725Z,17.85
2018-06-01T04:37:40.721Z,17.86
2018-06-01T04:38:40.635Z,17.86
2018-06-01T04:39:40.590Z,17.80
2018-06-01T04:40:40.549Z,17.85
2018-06-01T04:41:40.503Z,17.82
2018-06-01T04:42:40.511Z,17.79
2018-06-01T04:43:40.415Z,17.82
2018-06-01T04:44:40.373Z,17.89
2018-06-01T04:45:40.328Z,17.80
2018-06-01T04:46:40.284Z,17.78
2018-06-01T04:47:40.281Z,17.74
2018-06-01T04:48:40.199Z,17.74
2018-06-01T04:49:40.149Z,17.71
2018-06-01T04:50:40.109Z,17.79
2018-06-01T04:51:40.093Z,17.79
2018-06-01T04:52:40.020Z,17.90
2018-06-01T04:53:39.974Z,17.86
2018-06-01T04:54:39.971Z,17.94
2018-06-01T04:55:39.885Z,17.90
2018-06-01T04:56:39.843Z,17.94
2018-06-01T04:57:39.798Z,18.00
2018-06-01T04:58:39.754Z,17.97
2018-06-01T04:59:39.750Z,17.94
2018-06-01T05:00:39.666Z,18.01
2018-06-01T05:01:39.621Z,18.04
2018-06-01T05:02:39.576Z,18.10
2018-06-01T05:03:39.531Z,17.98
2018-06-01T05:04:39.520Z,18.04
2018-06-01T05:05:39.474Z,18.03
2018-06-01T05:06:39.397Z,18.07
2018-06-01T05:07:39.357Z,18.07
2018-06-01T05:08:39.309Z,18.13
2018-06-01T05:09:39.268Z,18.15
2018-06-01T05:10:39.256Z,18.15
2018-06-01T05:11:39.178Z,18.16
2018-06-01T05:12:39.134Z,18.18
2018-06-01T05:13:39.089Z,18.16
2018-06-01T05:14:39.043Z,18.25
2018-06-01T05:15:39.025Z,18.23
2018-06-01T05:16:39.011Z,18.34
2018-06-01T05:17:38.910Z,18.28
2018-06-01T05:18:38.869Z,18.41
2018-06-01T05:19:38.859Z,18.50
2018-06-01T05:20:38.782Z,18.45
2018-06-01T05:21:38.735Z,18.44
2018-06-01T05:22:38.690Z,18.47
2018-06-01T05:23:38.678Z,18.50
2018-06-01T05:24:38.606Z,18.52
2018-06-01T05:25:38.561Z,18.50
2018-06-01T05:26:38.551Z,18.56
2018-06-01T05:27:38.475Z,18.58
2018-06-01T05:28:38.473Z,18.50
2018-06-01T05:29:38.382Z,18.53
2018-06-01T05:30:38.341Z,18.47
2018-06-01T05:31:38.296Z,18.45
2018-06-01T05:32:38.252Z,18.53
2018-06-01T05:33:38.240Z,18.44
2018-06-01T05:34:38.163Z,18.58
2018-06-01T05:35:38.169Z,18.60
2018-06-01T05:36:38.081Z,18.60
2018-06-01T05:37:38.030Z,18.52
2018-06-01T05:38:37.987Z,18.56
2018-06-01T05:39:37.950Z,18.60
2018-06-01T05:40:37.939Z,18.62
2018-06-01T05:41:37.852Z,18.65
2018-06-01T05:42:37.810Z,18.59
2018-06-01T05:43:37.765Z,18.70
2018-06-01T05:44:37.725Z,18.65
2018-06-01T05:45:37.713Z,18.62
2018-06-01T05:46:37.680Z,18.73
2018-06-01T05:47:37.590Z,18.65
2018-06-01T05:48:37.548Z,18.65
2018-06-01T05:49:37.502Z,18.56
2018-06-01T05:50:37.457Z,18.44
2018-06-01T05:51:37.446Z,18.47
2018-06-01T05:52:37.402Z,18.40
2018-06-01T05:53:37.324Z,18.41
2018-06-01T05:54:37.288Z,18.34
2018-06-01T05:55:37.269Z,18.28
2018-06-01T05:56:37.194Z,18.19
2018-06-01T05:57:37.151Z,18.11
2018-06-01T05:58:37.104Z,18.10
2018-06-01T05:59:37.095Z,18.10
2018-06-01T06:00:37.017Z,17.95
2018-06-01T06:01:36.972Z,17.95
2018-06-01T06:02:36.976Z,18.01
2018-06-01T06:03:36.884Z,17.89
2018-06-01T06:04:36.871Z,17.80
2018-06-01T06:05:36.795Z,17.79
2018-06-01T06:06:36.757Z,17.87
2018-06-01T06:07:36.739Z,17.83
2018-06-01T06:08:36.662Z,17.85
2018-06-01T06:09:36.647Z,17.76
2018-06-01T06:10:36.575Z,17.72
2018-06-01T06:11:36.528Z,17.68
2018-06-01T06:12:36.490Z,17.72
2018-06-01T06:13:36.458Z,17.48
2018-06-01T06:14:36.430Z,17.49
2018-06-01T06:15:36.353Z,17.54
2018-06-01T06:16:36.311Z,17.51
2018-06-01T06:17:36.265Z,17.45
2018-06-01T06:18:36.225Z,17.34
2018-06-01T06:19:36.200Z,17.41
2018-06-01T06:20:36.134Z,17.41
2018-06-01T06:21:36.093Z,17.39
2018-06-01T06:22:36.083Z,17.42
2018-06-01T06:23:35.994Z,17.27
2018-06-01T06:24:35.979Z,17.24
2018-06-01T06:25:35.964Z,17.29
2018-06-01T06:26:35.859Z,17.31
2018-06-01T06:27:35.817Z,17.29
2018-06-01T06:28:35.811Z,17.38
2018-06-01T06:29:35.731Z,17.44
2018-06-01T06:30:35.687Z,17.41
2018-06-01T06:31:35.649Z,17.44
2018-06-01T06:32:35.600Z,17.30
2018-06-01T06:33:35.581Z,17.36
2018-06-01T06:34:35.508Z,17.39
2018-06-01T06:35:35.458Z,17.44
2018-06-01T06:36:35.421Z,17.44
2018-06-01T06:37:35.409Z,17.51
2018-06-01T06:38:35.365Z,17.42
2018-06-01T06:39:35.293Z,17.34
2018-06-01T06:40:35.241Z,17.38
2018-06-01T06:41:35.193Z,17.34
2018-06-01T06:42:35.157Z,17.39
2018-06-01T06:43:35.140Z,17.38
2018-06-01T06:44:35.056Z,17.33
2018-06-01T06:45:35.010Z,17.49
2018-06-01T06:46:34.964Z,17.52
2018-06-01T06:47:34.923Z,17.48
2018-06-01T06:48:34.928Z,17.59
2018-06-01T06:49:34.831Z,17.60
2018-06-01T06:50:34.786Z,17.65
2018-06-01T06:51:34.747Z,17.59
2018-06-01T06:52:34.702Z,17.54
2018-06-01T06:53:34.677Z,17.56
2018-06-01T06:54:34.610Z,17.54
2018-06-01T06:55:34.597Z,17.59
2018-06-01T06:56:34.522Z,17.54
2018-06-01T06:57:34.477Z,17.52
2018-06-01T06:58:34.432Z,17.34
2018-06-01T06:59:34.385Z,17.46
2018-06-01T07:00:34.379Z,17.34
2018-06-01T07:01:34.295Z,17.42
2018-06-01T07:02:34.247Z,17.48
2018-06-01T07:03:34.211Z,17.42
2018-06-01T07:04:34.159Z,17.51
2018-06-01T07:05:34.148Z,17.31
2018-06-01T07:06:34.079Z,17.38
2018-06-01T07:07:34.031Z,17.42
2018-06-01T07:08:33.981Z,17.31
2018-06-01T07:09:33.970Z,17.30
2018-06-01T07:10:33.924Z,17.34
2018-06-01T07:11:33.882Z,17.36
2018-06-01T07:12:33.801Z,17.31
2018-06-01T07:13:33.754Z,17.48
2018-06-01T07:14:33.711Z,17.46
2018-06-01T07:15:33.667Z,17.44
2018-06-01T07:16:33.653Z,17.51
2018-06-01T07:17:33.580Z,17.52
2018-06-01T07:18:33.565Z,17.46
2018-06-01T07:19:33.491Z,17.41
2018-06-01T07:20:33.442Z,17.49
2018-06-01T07:21:33.397Z,17.42
2018-06-01T07:22:33.387Z,17.45
2018-06-01T07:23:33.307Z,17.46
2018-06-01T07:24:33.295Z,17.31
2018-06-01T07:25:33.219Z,17.34
2018-06-01T07:26:33.205Z,17.38
2018-06-01T07:27:33.130Z,17.34
2018-06-01T07:28:33.085Z,17.34
2018-06-01T07:29:33.071Z,17.45
2018-06-01T07:30:32.994Z,17.44
2018-06-01T07:31:32.984Z,17.44
2018-06-01T07:32:32.908Z,17.45
2018-06-01T07:33:32.899Z,17.45
2018-06-01T07:34:32.813Z,17.57
2018-06-01T07:35:32.777Z,17.54
2018-06-01T07:36:32.727Z,17.67
2018-06-01T07:37:32.686Z,17.67
2018-06-01T07:38:32.678Z,17.56
2018-06-01T07:39:32.593Z,17.70
2018-06-01T07:40:32.550Z,17.64
2018-06-01T07:41:32.503Z,17.64
2018-06-01T07:42:32.457Z,17.68
2018-06-01T07:43:32.454Z,17.67
2018-06-01T07:44:32.371Z,17.65
2018-06-01T07:45:32.323Z,17.74
2018-06-01T07:46:32.281Z,17.70
2018-06-01T07:47:32.237Z,17.80
2018-06-01T07:48:32.228Z,17.72
2018-06-01T07:49:32.142Z,17.65
2018-06-01T07:50:32.103Z,17.63
2018-06-01T07:51:32.055Z,17.60
2018-06-01T07:52:32.013Z,17.59
2018-06-01T07:53:31.996Z,17.44
2018-06-01T07:54:31.970Z,17.63
2018-06-01T07:55:31.878Z,17.56
2018-06-01T07:56:31.835Z,17.57
2018-06-01T07:57:31.785Z,17.65
2018-06-01T07:58:31.819Z,17.67
2018-06-01T07:59:31.732Z,17.78
2018-06-01T08:00:31.655Z,17.79
2018-06-01T08:01:31.610Z,17.78
2018-06-01T08:02:31.562Z,17.78
2018-06-01T08:03:31.542Z,17.80
2018-06-01T08:04:31.509Z,17.85
2018-06-01T08:05:31.431Z,17.89
2018-06-01T08:06:31.387Z,17.85
2018-06-01T08:07:31.347Z,17.94
2018-06-01T08:08:31.295Z,17.90
2018-06-01T08:09:31.304Z,17.95
2018-06-01T08:10:31.210Z,17.98
2018-06-01T08:11:31.163Z,17.94
2018-06-01T08:12:31.126Z,18.15
2018-06-01T08:13:31.073Z,18.00
2018-06-01T08:14:31.072Z,18.05
2018-06-01T08:15:30.988Z,18.08
2018-06-01T08:16:30.938Z,18.11
2018-06-01T08:17:30.894Z,18.10
2018-06-01T08:18:30.852Z,18.20
2018-06-01T08:19:30.840Z,18.31
2018-06-01T08:20:30.762Z,18.20
2018-06-01T08:21:30.756Z,18.18
2018-06-01T08:22:30.673Z,18.23
2018-06-01T08:23:30.630Z,18.08
2018-06-01T08:24:30.586Z,18.20
2018-06-01T08:25:30.539Z,18.22
2018-06-01T08:26:30.540Z,18.23
2018-06-01T08:27:30.456Z,18.33
2018-06-01T08:28:30.416Z,18.26
2018-06-01T08:29:30.364Z,18.28
2018-06-01T08:30:30.361Z,18.35
2018-06-01T08:31:30.277Z,18.22
2018-06-01T08:32:30.270Z,18.25
2018-06-01T08:33:30.189Z,18.22
2018-06-01T08:34:30.178Z,18.20
2018-06-01T08:35:30.101Z,18.29
2018-06-01T08:36:30.054Z,18.43
2018-06-01T08:37:30.016Z,18.40
2018-06-01T08:38:29.971Z,18.38
2018-06-01T08:39:30.009Z,18.33
2018-06-01T08:40:29.881Z,18.43
2018-06-01T08:41:29.834Z,18.44
2018-06-01T08:42:29.788Z,18.29
2018-06-01T08:43:29.752Z,18.22
2018-06-01T08:44:29.733Z,18.23
2018-06-01T08:45:29.660Z,18.25
2018-06-01T08:46:29.664Z,18.20
2018-06-01T08:47:29.569Z,18.28
2018-06-01T08:48:29.525Z,18.31
2018-06-01T08:49:29.522Z,18.34
2018-06-01T08:50:29.438Z,18.37
2018-06-01T08:51:29.396Z,18.20
2018-06-01T08:52:29.372Z,18.33
2018-06-01T08:53:29.303Z,18.37
2018-06-01T08:54:29.309Z,18.40
2018-06-01T08:55:29.221Z,18.44
2018-06-01T08:56:29.173Z,18.41
2018-06-01T08:57:29.130Z,18.37
2018-06-01T08:58:29.094Z,18.49
2018-06-01T08:59:29.093Z,18.50
2018-06-01T09:00:28.997Z,18.45
2018-06-01T09:01:28.953Z,18.49
2018-06-01T09:02:28.911Z,18.58
2018-06-01T09:03:28.863Z,18.58
2018-06-01T09:04:28.868Z,18.65
2018-06-01T09:05:28.775Z,18.65
2018-06-01T09:06:28.734Z,18.60
2018-06-01T09:07:28.687Z,18.59
2018-06-01T09:08:28.643Z,18.74
2018-06-01T09:09:28.633Z,18.78
2018-06-01T09:10:28.561Z,18.86
2018-06-01T09:11:28.511Z,19.02
2018-06-01T09:12:28.469Z,19.00
2018-06-01T09:13:28.422Z,18.99
2018-06-01T09:14:28.415Z,18.98
2018-06-01T09:15:28.335Z,19.21
2018-06-01T09:16:28.330Z,19.22
2018-06-01T09:17:28.279Z,19.27
2018-06-01T09:18:28.208Z,19.31
2018-06-01T09:19:28.163Z,19.22
2018-06-01T09:20:28.121Z,19.26
2018-06-01T09:21:28.071Z,19.45
2018-06-01T09:22:28.073Z,19.52
2018-06-01T09:23:27.987Z,19.55
2018-06-01T09:24:27.945Z,19.66
2018-06-01T09:25:27.898Z,19.69
2018-06-01T09:26:27.864Z,19.71
2018-06-01T09:27:27.847Z,19.66
2018-06-01T09:28:27.790Z,19.62
2018-06-01T09:29:27.729Z,19.41
2018-06-01T09:30:27.681Z,19.34
2018-06-01T09:31:27.638Z,19.27
2018-06-01T09:32:27.644Z,19.22
2018-06-01T09:33:27.552Z,19.04
2018-06-01T09:34:27.567Z,18.98
2018-06-01T09:35:27.466Z,19.11
2018-06-01T09:36:27.425Z,19.14
2018-06-01T09:37:27.421Z,19.26
2018-06-01T09:38:27.336Z,19.27
2018-06-01T09:39:27.300Z,19.27
2018-06-01T09:40:27.253Z,19.34
2018-06-01T09:41:27.203Z,19.37
2018-06-01T09:42:27.212Z,19.56
2018-06-01T09:43:27.126Z,19.56
2018-06-01T09:44:27.080Z,19.47
2018-06-01T09:45:27.038Z,19.29
2018-06-01T09:46:26.991Z,19.08
2018-06-01T09:47:26.982Z,19.11
2018-06-01T09:48:26.908Z,18.99
2018-06-01T09:49:26.861Z,19.12
2018-06-01T09:50:26.818Z,19.07
2018-06-01T09:51:26.774Z,19.11
2018-06-01T09:52:26.767Z,19.08
2018-06-01T09:53:26.687Z,19.12
2018-06-01T09:54:26.644Z,19.15
2018-06-01T09:55:26.614Z,19.18
2018-06-01T09:56:26.593Z,19.21
2018-06-01T09:57:26.514Z,19.26
2018-06-01T09:58:26.505Z,19.29
2018-06-01T09:59:26.427Z,19.39
2018-06-01T10:00:26.422Z,19.39
2018-06-01T10:01:26.340Z,19.45
2018-06-01T10:02:26.296Z,19.54
2018-06-01T10:03:26.255Z,19.69
2018-06-01T10:04:26.208Z,20.02
2018-06-01T10:05:26.201Z,20.26
2018-06-01T10:06:26.124Z,20.06
2018-06-01T10:07:26.082Z,20.07
2018-06-01T10:08:26.041Z,20.06
2018-06-01T10:09:25.997Z,20.13
2018-06-01T10:10:25.993Z,20.18
2018-06-01T10:11:25.908Z,20.04
2018-06-01T10:12:25.866Z,20.04
2018-06-01T10:13:25.826Z,19.96
2018-06-01T10:14:25.782Z,19.95
2018-06-01T10:15:25.773Z,20.10
2018-06-01T10:16:25.728Z,20.65
2018-06-01T10:17:25.653Z,20.99
2018-06-01T10:18:25.612Z,21.35
2018-06-01T10:19:25.567Z,21.45
2018-06-01T10:20:25.530Z,21.67
2018-06-01T10:21:25.581Z,21.54
2018-06-01T10:22:25.442Z,21.40
2018-06-01T10:23:25.403Z,21.45
2018-06-01T10:24:25.360Z,21.67
2018-06-01T10:25:25.314Z,21.64
2018-06-01T10:26:25.312Z,21.43
2018-06-01T10:27:25.231Z,21.35
2018-06-01T10:28:25.191Z,21.36
2018-06-01T10:29:25.155Z,21.48
2018-06-01T10:30:25.142Z,21.11
2018-06-01T10:31:25.105Z,21.11
2018-06-01T10:32:25.056Z,21.39
2018-06-01T10:33:24.981Z,21.40
2018-06-01T10:34:24.940Z,21.58
2018-06-01T10:35:24.936Z,21.92
2018-06-01T10:36:24.856Z,22.06
2018-06-01T10:37:24.848Z,21.98
2018-06-01T10:38:24.780Z,21.95
2018-06-01T10:39:24.739Z,22.18
2018-06-01T10:40:24.691Z,22.70
2018-06-01T10:41:24.686Z,23.08
2018-06-01T10:42:24.607Z,22.75
2018-06-01T10:43:24.565Z,22.75
2018-06-01T10:44:24.527Z,23.06
2018-06-01T10:45:24.482Z,23.44
2018-06-01T10:46:24.478Z,23.32
2018-06-01T10:47:24.439Z,23.08
2018-06-01T10:48:24.361Z,23.13
2018-06-01T10:49:24.353Z,23.18
2018-06-01T10:50:24.277Z,22.99
2018-06-01T10:51:24.273Z,22.78
2018-06-01T10:52:24.197Z,22.53
2018-06-01T10:53:24.162Z,22.11
2018-06-01T10:54:24.143Z,21.96
2018-06-01T10:55:24.107Z,21.95
2018-06-01T10:56:24.041Z,21.98
2018-06-01T10:57:23.994Z,21.89
2018-06-01T10:58:23.954Z,21.77
2018-06-01T10:59:23.916Z,21.75
2018-06-01T11:00:23.905Z,21.91
2018-06-01T11:01:23.838Z,21.95
2018-06-01T11:02:23.819Z,21.73
2018-06-01T11:03:23.747Z,21.61
2018-06-01T11:04:23.744Z,21.73
2018-06-01T11:05:23.668Z,22.06
2018-06-01T11:06:23.628Z,22.26
2018-06-01T11:07:23.613Z,22.63
2018-06-01T11:08:23.543Z,23.09
2018-06-01T11:09:23.502Z,23.00
2018-06-01T11:10:23.459Z,22.84
2018-06-01T11:11:23.420Z,22.72
2018-06-01T11:12:23.416Z,23.05
2018-06-01T11:13:23.341Z,23.37
2018-06-01T11:14:23.298Z,23.12
2018-06-01T11:15:23.285Z,23.12
2018-06-01T11:16:23.218Z,22.83
2018-06-01T11:17:23.178Z,22.68
2018-06-01T11:18:23.140Z,22.50
2018-06-01T11:19:23.134Z,22.50
2018-06-01T11:20:23.056Z,22.39
2018-06-01T11:21:23.095Z,22.28
2018-06-01T11:22:22.971Z,22.10
2018-06-01T11:23:22.930Z,22.07
2018-06-01T11:24:22.933Z,21.83
2018-06-01T11:25:22.852Z,21.77
2018-06-01T11:26:22.811Z,22.00
2018-06-01T11:27:22.769Z,21.96
2018-06-01T11:28:22.727Z,21.98
2018-06-01T11:29:22.720Z,21.82
2018-06-01T11:30:22.644Z,21.80
2018-06-01T11:31:22.604Z,21.93
2018-06-01T11:32:22.671Z,21.92
2018-06-01T11:33:22.520Z,22.07
2018-06-01T11:34:22.513Z,22.23
2018-06-01T11:35:22.483Z,22.48
2018-06-01T11:36:22.398Z,22.62
2018-06-01T11:37:22.361Z,22.63
2018-06-01T11:38:22.375Z,22.60
2018-06-01T11:39:22.278Z,22.59
2018-06-01T11:40:22.264Z,22.62
2018-06-01T11:41:22.194Z,22.45
2018-06-01T11:42:22.154Z,22.50
2018-06-01T11:43:22.112Z,22.53
2018-06-01T11:44:22.071Z,22.55
2018-06-01T11:45:22.066Z,22.69
2018-06-01T11:46:21.991Z,22.62
2018-06-01T11:47:21.957Z,22.38
2018-06-01T11:48:21.908Z,22.30
2018-06-01T11:49:21.871Z,22.04
2018-06-01T11:50:21.869Z,21.89
2018-06-01T11:51:21.791Z,21.91
2018-06-01T11:52:21.744Z,21.96
2018-06-01T11:53:21.708Z,21.93
2018-06-01T11:54:21.664Z,21.85
2018-06-01T11:55:21.657Z,21.66
2018-06-01T11:56:21.615Z,21.67
2018-06-01T11:57:21.552Z,21.69
2018-06-01T11:58:21.533Z,21.76
2018-06-01T11:59:21.459Z,21.95
2018-06-01T12:00:21.415Z,22.02
2018-06-01T12:01:21.407Z,22.06
2018-06-01T12:02:21.333Z,22.11
2018-06-01T12:03:21.293Z,22.02
2018-06-01T12:04:21.295Z,22.17
2018-06-01T12:05:21.211Z,22.20
2018-06-01T12:06:21.172Z,22.63
2018-06-01T12:07:21.129Z,22.93
2018-06-01T12:08:21.090Z,22.98
2018-06-01T12:09:21.085Z,23.17
2018-06-01T12:10:21.043Z,23.20
2018-06-01T12:11:20.971Z,23.12
2018-06-01T12:12:20.933Z,22.72
2018-06-01T12:13:20.887Z,22.75
2018-06-01T12:14:20.877Z,23.05
2018-06-01T12:15:20.806Z,23.13
2018-06-01T12:16:20.766Z,23.47
2018-06-01T12:17:20.758Z,23.63
2018-06-01T12:18:20.686Z,23.59
2018-06-01T12:19:20.674Z,23.58
2018-06-01T12:20:20.603Z,23.54
2018-06-01T12:21:20.561Z,23.43
2018-06-01T12:22:20.525Z,23.03
2018-06-01T12:23:20.561Z,23.05
2018-06-01T12:24:20.476Z,22.98
2018-06-01T12:25:20.402Z,23.02
2018-06-01T12:26:20.362Z,23.18
2018-06-01T12:27:20.320Z,23.18
2018-06-01T12:28:20.284Z,22.98
2018-06-01T12:29:20.302Z,22.81
2018-06-01T12:30:20.243Z,22.66
2018-06-01T12:31:20.162Z,22.65
2018-06-01T12:32:20.132Z,22.62
2018-06-01T12:33:20.080Z,22.73
2018-06-01T12:34:20.043Z,22.59
2018-06-01T12:35:20.030Z,22.66
2018-06-01T12:36:19.962Z,22.72
2018-06-01T12:37:19.917Z,22.63
2018-06-01T12:38:19.881Z,22.54
2018-06-01T12:39:19.843Z,22.68
2018-06-01T12:40:19.838Z,22.63
2018-06-01T12:41:19.757Z,22.65
2018-06-01T12:42:19.716Z,22.80
2018-06-01T12:43:19.676Z,22.87
2018-06-01T12:44:19.640Z,22.96
2018-06-01T12:45:19.631Z,22.93
2018-06-01T12:46:19.560Z,22.96
2018-06-01T12:47:19.560Z,23.12
2018-06-01T12:48:19.478Z,22.99
2018-06-01T12:49:19.435Z,23.23
2018-06-01T12:50:19.396Z,23.44
2018-06-01T12:51:19.356Z,23.63
2018-06-01T12:52:19.352Z,23.55